createdAt,value
2018-05-16T00:00:31.655Z,18.27
2018-05-16T00:03:01.259Z,17.17
2018-05-16T00:05:30.663Z,16.87
2018-05-16T00:08:00.386Z,17.67
2018-05-16T00:10:30.282Z,18.10
2018-05-16T00:13:00.115Z,18.23
2018-05-16T00:15:29.712Z,17.97
2018-05-16T00:17:59.415Z,15.90
2018-05-16T00:20:29.014Z,17.67
2018-05-16T00:22:58.825Z,15.77
2018-05-16T00:25:28.557Z,17.87
2018-05-16T00:27:59.066Z,19.50
2018-05-16T00:30:28.669Z,16.33
2018-05-16T00:32:58.278Z,16.37
2018-05-16T00:35:27.679Z,15.37
2018-05-16T00:37:57.389Z,18.27
2018-05-16T00:40:26.891Z,17.33
2018-05-16T00:42:56.400Z,17.57
2018-05-16T00:45:26.128Z,16.60
2018-05-16T00:47:55.613Z,16.27
2018-05-16T00:50:25.423Z,19.07
2018-05-16T00:52:54.953Z,16.03
2018-05-16T00:55:24.540Z,16.40
2018-05-16T00:57:53.939Z,16.10
2018-05-16T01:00:23.454Z,16.47
2018-05-16T01:02:52.843Z,15.77
2018-05-16T01:05:22.454Z,16.97
2018-05-16T01:07:51.953Z,16.43
2018-05-16T01:10:21.463Z,17.77
2018-05-16T01:12:50.969Z,17.53
2018-05-16T01:15:20.564Z,16.00
2018-05-16T01:17:50.179Z,17.40
2018-05-16T01:20:19.680Z,19.43
2018-05-16T01:22:49.495Z,17.23
2018-05-16T01:25:18.995Z,18.70
2018-05-16T01:27:48.523Z,19.10
2018-05-16T01:30:18.114Z,16.67
2018-05-16T01:32:48.023Z,19.30
2018-05-16T01:35:17.737Z,17.67
2018-05-16T01:37:47.455Z,15.97
2018-05-16T01:40:16.954Z,17.53
2018-05-16T01:42:46.452Z,17.20
2018-05-16T01:45:15.957Z,18.57
2018-05-16T01:47:45.574Z,20.40
2018-05-16T01:50:14.963Z,18.40
2018-05-16T01:52:44.885Z,18.07
2018-05-16T01:55:14.492Z,19.13
2018-05-16T01:57:43.991Z,17.87
2018-05-16T02:00:13.598Z,19.27
2018-05-16T02:02:42.997Z,18.13
2018-05-16T02:05:12.603Z,19.40
2018-05-16T02:07:42.211Z,21.00
2018-05-16T02:10:11.821Z,22.40
2018-05-16T02:12:41.321Z,20.17
2018-05-16T02:15:10.934Z,20.60
2018-05-16T02:17:40.551Z,20.37
2018-05-16T02:20:10.160Z,19.07
2018-05-16T02:22:39.655Z,18.97
2018-05-16T02:25:09.251Z,18.57
2018-05-16T02:27:38.963Z,20.50
2018-05-16T02:30:08.472Z,19.87
2018-05-16T02:32:38.082Z,23.07
2018-05-16T02:35:07.682Z,21.17
2018-05-16T02:37:37.392Z,22.33
2018-05-16T02:40:07.413Z,20.00
2018-05-16T02:42:37.328Z,23.43
2018-05-16T02:45:06.931Z,22.83
2018-05-16T02:47:36.665Z,21.77
2018-05-16T02:50:06.462Z,23.87
2018-05-16T02:52:35.956Z,23.63
2018-05-16T02:55:05.668Z,21.67
2018-05-16T02:57:35.380Z,22.33
2018-05-16T03:00:04.779Z,23.80
2018-05-16T03:02:34.492Z,21.77
2018-05-16T03:05:04.203Z,25.27
2018-05-16T03:07:33.810Z,23.20
2018-05-16T03:10:03.414Z,23.93
2018-05-16T03:12:33.017Z,24.60
2018-05-16T03:15:02.423Z,24.83
2018-05-16T03:17:32.126Z,25.20
2018-05-16T03:22:39.955Z,27.03
2018-05-16T03:25:13.044Z,29.37
2018-05-16T03:27:42.631Z,28.60
2018-05-16T03:30:12.349Z,27.20
2018-05-16T03:32:41.758Z,27.10
2018-05-16T03:35:11.567Z,28.60
2018-05-16T03:37:41.069Z,31.63
2018-05-16T03:40:11.099Z,30.20
2018-05-16T03:42:40.687Z,30.87
2018-05-16T03:45:10.409Z,29.00
2018-05-16T03:47:40.006Z,28.83
2018-05-16T03:50:09.573Z,30.57
2018-05-16T03:52:39.543Z,32.90
2018-05-16T03:55:09.027Z,29.97
2018-05-16T03:57:46.433Z,27.77
2018-05-16T04:00:16.155Z,31.70
2018-05-16T04:02:45.951Z,30.87
2018-05-16T04:05:15.349Z,31.23
2018-05-16T04:07:44.950Z,32.30
2018-05-16T04:10:14.455Z,31.10
2018-05-16T04:12:43.963Z,32.50
2018-05-16T04:15:13.464Z,32.67
2018-05-16T04:17:42.971Z,31.47
2018-05-16T04:20:12.693Z,32.87
2018-05-16T04:22:42.282Z,32.73
2018-05-16T04:25:11.806Z,36.30
2018-05-16T04:27:41.400Z,36.27
2018-05-16T04:30:11.431Z,35.43
2018-05-16T04:32:41.043Z,36.90
2018-05-16T04:35:10.947Z,38.13
2018-05-16T04:37:40.439Z,38.57
2018-05-16T04:40:09.940Z,34.07
2018-05-16T04:42:39.567Z,36.83
2018-05-16T04:45:09.358Z,36.53
2018-05-16T04:47:38.966Z,38.37
2018-05-16T04:50:08.369Z,38.17
2018-05-16T04:52:38.315Z,34.57
2018-05-16T04:55:07.991Z,36.70
2018-05-16T04:57:37.827Z,36.53
2018-05-16T05:00:07.589Z,36.10
2018-05-16T05:02:37.323Z,36.40
2018-05-16T05:05:06.955Z,34.13
2018-05-16T05:07:38.083Z,37.17
2018-05-16T05:10:08.196Z,35.97
2018-05-16T05:12:37.950Z,36.47
2018-05-16T05:15:07.826Z,35.73
2018-05-16T05:17:37.544Z,33.20
2018-05-16T05:20:08.172Z,37.40
2018-05-16T05:22:38.900Z,36.10
2018-05-16T05:25:09.125Z,34.17
2018-05-16T05:27:38.724Z,36.53
2018-05-16T05:30:08.332Z,34.73
2018-05-16T05:32:38.657Z,33.27
2018-05-16T05:35:08.365Z,32.50
2018-05-16T05:37:38.073Z,31.73
2018-05-16T05:40:08.589Z,34.40
2018-05-16T05:42:38.928Z,33.27
2018-05-16T05:45:08.526Z,36.80
2018-05-16T05:47:38.437Z,37.53
2018-05-16T05:50:08.564Z,36.67
2018-05-16T05:52:38.378Z,39.30
2018-05-16T05:55:08.397Z,39.53
2018-05-16T05:57:38.508Z,38.37
2018-05-16T06:00:08.031Z,35.17
2018-05-16T06:02:37.515Z,33.90
2018-05-16T06:05:07.016Z,35.83
2018-05-16T06:07:37.642Z,36.60
2018-05-16T06:10:07.462Z,39.70
2018-05-16T06:12:37.658Z,35.23
2018-05-16T06:15:09.035Z,38.70
2018-05-16T06:17:39.057Z,38.60
2018-05-16T06:20:09.274Z,38.37
2018-05-16T06:22:40.415Z,39.20
2018-05-16T06:25:10.017Z,38.73
2018-05-16T06:27:40.340Z,38.47
2018-05-16T06:30:10.363Z,37.73
2018-05-16T06:32:41.100Z,33.37
2018-05-16T06:35:10.699Z,34.90
2018-05-16T06:37:40.325Z,31.87
2018-05-16T06:40:09.908Z,30.57
2018-05-16T06:42:39.418Z,34.47
2018-05-16T06:45:09.034Z,34.20
2018-05-16T06:47:38.621Z,32.77
2018-05-16T06:50:08.339Z,32.67
2018-05-16T06:52:37.948Z,32.10
2018-05-16T06:55:07.450Z,32.90
2018-05-16T06:57:36.957Z,33.27
2018-05-16T07:00:07.072Z,29.23
2018-05-16T07:02:37.502Z,28.37
2018-05-16T07:05:07.312Z,33.40
2018-05-16T07:07:37.124Z,30.40
2018-05-16T07:10:06.745Z,32.53
2018-05-16T07:12:36.442Z,33.40
2018-05-16T07:15:06.050Z,35.53
2018-05-16T07:17:36.166Z,33.07
2018-05-16T07:20:05.874Z,32.53
2018-05-16T07:22:35.685Z,35.03
2018-05-16T07:25:05.393Z,36.40
2018-05-16T07:27:35.107Z,35.93
2018-05-16T07:30:04.816Z,36.77
2018-05-16T07:32:34.544Z,35.40
2018-05-16T07:35:04.744Z,36.43
2018-05-16T07:37:34.358Z,35.10
2018-05-16T07:40:03.959Z,34.97
2018-05-16T07:42:33.777Z,33.03
2018-05-16T07:45:03.379Z,34.53
2018-05-16T07:47:33.190Z,27.80
2018-05-16T07:50:02.798Z,33.30
2018-05-16T07:52:32.297Z,34.33
2018-05-16T07:55:01.904Z,34.07
2018-05-16T07:57:31.522Z,34.07
2018-05-16T08:00:01.020Z,30.93
2018-05-16T08:02:30.545Z,30.23
2018-05-16T08:05:00.339Z,30.77
2018-05-16T08:07:29.965Z,29.93
2018-05-16T08:09:59.651Z,30.87
2018-05-16T08:12:29.256Z,26.30
2018-05-16T08:14:58.968Z,26.37
2018-05-16T08:17:29.288Z,26.50
2018-05-16T08:19:59.006Z,25.70
2018-05-16T08:22:28.608Z,25.13
2018-05-16T08:24:58.420Z,27.17
2018-05-16T08:27:28.134Z,25.47
2018-05-16T08:29:57.625Z,24.83
2018-05-16T08:32:27.240Z,21.40
2018-05-16T08:34:57.765Z,20.63
2018-05-16T08:37:29.113Z,25.20
2018-05-16T08:39:58.825Z,22.07
2018-05-16T08:42:28.637Z,23.40
2018-05-16T08:44:58.456Z,21.67
2018-05-16T08:47:27.952Z,22.80
2018-05-16T08:49:57.664Z,24.33
2018-05-16T08:52:28.914Z,24.53
2018-05-16T08:54:59.335Z,24.17
2018-05-16T08:57:29.048Z,23.03
2018-05-16T08:59:58.567Z,23.33
2018-05-16T09:02:27.949Z,22.40
2018-05-16T09:04:57.350Z,23.30
2018-05-16T09:07:26.964Z,20.13
2018-05-16T09:09:56.794Z,18.60
2018-05-16T09:12:26.705Z,18.93
2018-05-16T09:14:56.193Z,18.90
2018-05-16T09:17:26.063Z,16.60
2018-05-16T09:19:55.725Z,19.40
2018-05-16T09:22:25.416Z,17.83
2018-05-16T09:24:55.144Z,18.00
2018-05-16T09:27:24.943Z,21.03
2018-05-16T09:29:54.764Z,19.73
2018-05-16T09:32:24.363Z,19.77
2018-05-16T09:34:54.561Z,19.40
2018-05-16T09:37:24.703Z,18.60
2018-05-16T09:39:54.625Z,16.43
2018-05-16T09:42:24.320Z,18.00
2018-05-16T09:44:54.031Z,21.43
2018-05-16T09:47:24.157Z,20.97
2018-05-16T09:49:53.980Z,19.63
2018-05-16T09:52:23.466Z,22.10
2018-05-16T09:54:53.072Z,20.37
2018-05-16T09:57:22.888Z,21.00
2018-05-16T09:59:52.505Z,19.87
2018-05-16T10:02:23.554Z,20.73
2018-05-16T10:04:53.565Z,19.07
2018-05-16T10:07:23.886Z,21.03
2018-05-16T10:09:54.078Z,21.33
2018-05-16T10:12:23.910Z,23.03
2018-05-16T10:14:53.619Z,19.90
2018-05-16T10:17:23.345Z,18.20
2018-05-16T10:19:53.039Z,17.23
2018-05-16T10:22:22.437Z,20.00
2018-05-16T10:24:51.941Z,18.37
2018-05-16T10:27:21.550Z,17.63
2018-05-16T10:29:50.949Z,19.87
2018-05-16T10:32:21.274Z,19.10
2018-05-16T10:34:50.984Z,18.87
2018-05-16T10:37:23.149Z,19.93
2018-05-16T10:39:52.755Z,18.77
2018-05-16T10:42:23.585Z,21.07
2018-05-16T10:44:53.411Z,17.00
2018-05-16T10:47:23.833Z,16.27
2018-05-16T10:49:53.849Z,16.17
2018-05-16T10:52:23.455Z,15.37
2018-05-16T10:54:53.071Z,16.87
2018-05-16T10:57:22.623Z,13.80
2018-05-16T10:59:52.380Z,15.77
2018-05-16T11:02:21.883Z,18.87
2018-05-16T11:04:51.798Z,15.80
2018-05-16T11:07:22.532Z,13.63
2018-05-16T11:09:54.205Z,15.00
2018-05-16T11:12:24.005Z,15.87
2018-05-16T11:14:53.398Z,15.30
2018-05-16T11:17:23.319Z,15.93
2018-05-16T11:19:53.332Z,17.37
2018-05-16T11:22:25.006Z,16.73
2018-05-16T11:24:55.205Z,15.53
2018-05-16T11:27:25.019Z,15.83
2018-05-16T11:29:54.853Z,15.20
2018-05-16T11:32:25.459Z,15.97
2018-05-16T11:34:55.377Z,15.57
2018-05-16T11:37:25.505Z,13.77
2018-05-16T11:39:55.000Z,14.77
2018-05-16T11:42:24.762Z,15.40
2018-05-16T11:44:54.545Z,13.80
2018-05-16T11:47:24.019Z,15.33
2018-05-16T11:49:57.427Z,14.37
2018-05-16T11:52:27.629Z,12.13
2018-05-16T11:54:57.040Z,12.67
2018-05-16T11:57:26.441Z,13.57
2018-05-16T11:59:55.949Z,13.33
2018-05-16T12:02:25.554Z,13.87
2018-05-16T12:04:54.956Z,13.53
2018-05-16T12:07:24.358Z,14.30
2018-05-16T12:09:53.985Z,13.90
2018-05-16T12:12:23.569Z,13.50
2018-05-16T12:14:53.222Z,13.90
2018-05-16T12:17:23.568Z,15.70
2018-05-16T12:19:53.108Z,14.90
2018-05-16T12:22:22.845Z,13.67
2018-05-16T12:24:52.524Z,14.00
2018-05-16T12:27:22.045Z,13.83
2018-05-16T12:29:51.541Z,11.43
2018-05-16T12:32:20.938Z,12.73
2018-05-16T12:34:50.465Z,14.07
2018-05-16T12:37:20.165Z,14.13
2018-05-16T12:39:50.385Z,13.03
2018-05-16T12:42:20.392Z,13.00
2018-05-16T12:44:49.994Z,10.47
2018-05-16T12:47:19.913Z,10.93
2018-05-16T12:49:49.426Z,11.07
2018-05-16T12:52:18.917Z,10.73
2018-05-16T12:54:48.939Z,10.10
2018-05-16T12:57:18.338Z,11.20
2018-05-16T12:59:49.086Z,14.67
2018-05-16T13:02:21.642Z,13.17
2018-05-16T13:04:55.576Z,13.20
2018-05-16T13:07:24.958Z,13.07
2018-05-16T13:12:28.272Z,11.70
2018-05-16T13:14:58.282Z,11.87
2018-05-16T13:17:28.106Z,10.47
2018-05-16T13:19:58.017Z,10.30
2018-05-16T13:22:27.938Z,10.83
2018-05-16T13:24:57.441Z,11.27
2018-05-16T13:27:27.347Z,9.90
2018-05-16T13:29:57.059Z,10.10
2018-05-16T13:32:26.868Z,9.50
2018-05-16T13:34:56.373Z,8.53
2018-05-16T13:37:26.083Z,8.43
2018-05-16T13:39:55.797Z,8.73
2018-05-16T13:42:25.807Z,8.80
2018-05-16T13:44:55.606Z,8.40
2018-05-16T13:47:25.544Z,9.17
2018-05-16T13:49:55.039Z,8.47
2018-05-16T13:52:24.843Z,7.93
2018-05-16T13:54:54.465Z,7.73
2018-05-16T13:57:24.166Z,7.90
2018-05-16T13:59:54.177Z,8.43
2018-05-16T14:02:23.988Z,6.47
2018-05-16T14:04:53.597Z,6.37
2018-05-16T14:07:23.516Z,7.87
2018-05-16T14:09:53.013Z,6.67
2018-05-16T14:12:22.748Z,6.73
2018-05-16T14:14:52.865Z,7.10
2018-05-16T14:17:22.564Z,6.47
2018-05-16T14:19:52.477Z,5.80
2018-05-16T14:22:22.085Z,6.80
2018-05-16T14:24:51.887Z,6.70
2018-05-16T14:27:21.585Z,7.37
2018-05-16T14:29:51.325Z,7.23
2018-05-16T14:32:21.218Z,6.73
2018-05-16T14:34:50.944Z,6.70
2018-05-16T14:37:21.049Z,6.90
2018-05-16T14:39:50.658Z,6.80
2018-05-16T14:42:20.471Z,6.30
2018-05-16T14:44:50.085Z,6.50
2018-05-16T14:47:19.905Z,8.03
2018-05-16T14:49:49.698Z,6.93
2018-05-16T14:52:19.713Z,7.53
2018-05-16T14:54:49.019Z,6.47
2018-05-16T14:57:18.718Z,5.20
2018-05-16T14:59:48.345Z,4.17
2018-05-16T15:02:17.839Z,3.50
2018-05-16T15:04:47.335Z,3.77
2018-05-16T15:07:17.149Z,4.27
2018-05-16T15:09:46.758Z,5.10
2018-05-16T15:12:16.385Z,4.90
2018-05-16T15:14:45.901Z,5.03
2018-05-16T15:17:15.475Z,5.57
2018-05-16T15:19:44.985Z,5.27
2018-05-16T15:22:14.573Z,5.10
2018-05-16T15:24:44.565Z,4.83
2018-05-16T15:27:14.144Z,6.63
2018-05-16T15:29:43.713Z,7.47
2018-05-16T15:32:13.341Z,8.20
2018-05-16T15:34:42.924Z,9.37
2018-05-16T15:37:12.551Z,8.93
2018-05-16T15:39:42.173Z,9.20
2018-05-16T15:42:11.757Z,9.07
2018-05-16T15:44:41.463Z,9.33
2018-05-16T15:47:11.183Z,8.10
2018-05-16T15:49:40.777Z,8.67
2018-05-16T15:52:10.583Z,10.63
2018-05-16T15:54:40.292Z,10.13
2018-05-16T15:57:10.103Z,9.60
2018-05-16T15:59:39.764Z,10.43
2018-05-16T16:02:09.320Z,10.70
2018-05-16T16:04:38.820Z,10.40
2018-05-16T16:07:08.443Z,10.30
2018-05-16T16:09:38.065Z,12.87
2018-05-16T16:12:07.766Z,11.83
2018-05-16T16:14:37.361Z,12.23
2018-05-16T16:17:07.083Z,11.98
2018-05-16T16:19:40.461Z,11.27
2018-05-16T16:22:10.063Z,11.83
2018-05-16T16:24:39.466Z,13.97
2018-05-16T16:27:09.084Z,12.37
2018-05-16T16:29:38.478Z,11.03
2018-05-16T16:32:08.086Z,15.10
2018-05-16T16:34:37.689Z,15.53
2018-05-16T16:37:07.296Z,13.53
2018-05-16T16:39:37.014Z,14.07
2018-05-16T16:42:07.025Z,12.80
2018-05-16T16:44:36.622Z,14.13
2018-05-16T16:47:06.337Z,14.97
2018-05-16T16:49:36.045Z,13.97
2018-05-16T16:52:06.063Z,14.53
2018-05-16T16:54:35.851Z,14.53
2018-05-16T16:57:05.674Z,13.17
2018-05-16T16:59:35.195Z,13.70
2018-05-16T17:02:04.927Z,14.03
2018-05-16T17:04:34.776Z,13.23
2018-05-16T17:07:04.525Z,13.43
2018-05-16T17:09:34.205Z,13.73
2018-05-16T17:12:04.049Z,16.17
2018-05-16T17:14:33.651Z,16.97
2018-05-16T17:17:03.583Z,15.77
2018-05-16T17:19:33.179Z,15.87
2018-05-16T17:22:03.085Z,15.80
2018-05-16T17:24:33.147Z,16.27
2018-05-16T17:27:03.433Z,18.23
2018-05-16T17:29:33.141Z,15.70
2018-05-16T17:32:03.052Z,16.13
2018-05-16T17:34:32.885Z,16.17
2018-05-16T17:37:02.563Z,16.07
2018-05-16T17:39:32.314Z,16.83
2018-05-16T17:42:01.999Z,17.13
2018-05-16T17:44:32.319Z,17.10
2018-05-16T17:47:02.041Z,17.37
2018-05-16T17:49:31.537Z,17.83
2018-05-16T17:52:00.931Z,17.50
2018-05-16T17:54:30.959Z,18.40
2018-05-16T17:57:00.550Z,15.57
2018-05-16T17:59:30.472Z,17.97
2018-05-16T18:02:00.075Z,17.07
2018-05-16T18:04:29.912Z,17.47
2018-05-16T18:06:59.700Z,19.77
2018-05-16T18:09:29.594Z,18.63
2018-05-16T18:11:59.418Z,17.50
2018-05-16T18:14:29.452Z,18.40
2018-05-16T18:16:59.501Z,18.77
2018-05-16T18:19:29.076Z,15.70
2018-05-16T18:21:59.174Z,18.50
2018-05-16T18:24:28.831Z,16.33
2018-05-16T18:26:58.912Z,17.53
2018-05-16T18:29:29.148Z,15.80
2018-05-16T18:31:58.834Z,16.40
2018-05-16T18:34:28.339Z,16.97
2018-05-16T18:36:58.572Z,14.93
2018-05-16T18:39:28.483Z,15.60
2018-05-16T18:41:58.311Z,16.00
2018-05-16T18:44:27.911Z,13.73
2018-05-16T18:46:57.551Z,14.50
2018-05-16T18:49:27.405Z,15.60
2018-05-16T18:51:57.451Z,14.03
2018-05-16T18:54:27.252Z,13.87
2018-05-16T18:56:57.060Z,15.37
2018-05-16T18:59:26.979Z,14.87
2018-05-16T19:01:57.395Z,16.00
2018-05-16T19:04:27.515Z,16.03
2018-05-16T19:06:57.120Z,15.10
2018-05-16T19:09:26.743Z,15.30
2018-05-16T19:11:56.749Z,16.23
2018-05-16T19:14:26.399Z,15.07
2018-05-16T19:16:55.960Z,16.33
2018-05-16T19:19:25.805Z,14.00
2018-05-16T19:21:55.496Z,15.93
2018-05-16T19:24:25.584Z,16.03
2018-05-16T19:26:55.310Z,15.53
2018-05-16T19:29:24.912Z,14.97
2018-05-16T19:31:54.529Z,16.00
2018-05-16T19:34:24.025Z,16.33
2018-05-16T19:36:53.733Z,15.80
2018-05-16T19:39:23.348Z,17.40
2018-05-16T19:41:53.173Z,16.97
2018-05-16T19:44:22.865Z,16.37
2018-05-16T19:46:52.471Z,17.60
2018-05-16T19:49:21.973Z,17.63
2018-05-16T19:51:51.489Z,14.80
2018-05-16T19:54:21.191Z,13.43
2018-05-16T19:56:50.792Z,13.93
2018-05-16T19:59:20.411Z,12.07
2018-05-16T20:01:50.007Z,12.33
2018-05-16T20:04:19.419Z,12.07
2018-05-16T20:06:49.029Z,12.67
2018-05-16T20:09:18.829Z,11.47
2018-05-16T20:11:48.442Z,11.20
2018-05-16T20:14:17.939Z,11.40
2018-05-16T20:16:47.450Z,11.73
2018-05-16T20:19:17.363Z,10.50
2018-05-16T20:21:46.967Z,10.73
2018-05-16T20:24:16.476Z,11.33
2018-05-16T20:26:47.201Z,11.37
2018-05-16T20:29:16.827Z,12.73
2018-05-16T20:31:46.544Z,14.80
2018-05-16T20:34:16.124Z,14.63
2018-05-16T20:36:45.949Z,16.60
2018-05-16T20:39:15.442Z,15.83
2018-05-16T20:41:44.944Z,16.97
2018-05-16T20:44:14.352Z,16.77
2018-05-16T20:46:43.975Z,14.63
2018-05-16T20:49:13.565Z,15.13
2018-05-16T20:51:43.070Z,15.40
2018-05-16T20:54:12.676Z,15.73
2018-05-16T20:56:42.406Z,16.40
2018-05-16T20:59:12.202Z,13.80
2018-05-16T21:01:41.910Z,14.73
2018-05-16T21:04:11.564Z,16.07
2018-05-16T21:06:41.017Z,14.63
2018-05-16T21:09:10.564Z,16.23
2018-05-16T21:11:40.230Z,14.70
2018-05-16T21:14:09.944Z,15.13
2018-05-16T21:16:39.351Z,14.83
2018-05-16T21:19:08.853Z,13.70
2018-05-16T21:21:38.455Z,15.17
2018-05-16T21:24:07.955Z,16.63
2018-05-16T21:26:37.674Z,15.00
2018-05-16T21:29:07.066Z,15.47
2018-05-16T21:31:36.710Z,20.70
2018-05-16T21:34:06.293Z,16.80
2018-05-16T21:36:35.901Z,17.33
2018-05-16T21:39:05.505Z,20.13
2018-05-16T21:41:35.001Z,19.23
2018-05-16T21:44:04.402Z,21.93
2018-05-16T21:46:34.009Z,17.03
2018-05-16T21:49:03.841Z,17.17
2018-05-16T21:51:33.448Z,19.07
2018-05-16T21:54:02.934Z,16.33
2018-05-16T21:56:32.439Z,14.70
2018-05-16T21:59:02.072Z,14.43
2018-05-16T22:01:31.571Z,14.40
2018-05-16T22:04:00.950Z,12.60
2018-05-16T22:06:30.457Z,13.40
2018-05-16T22:08:59.960Z,12.40
2018-05-16T22:11:29.588Z,11.63
2018-05-16T22:13:58.969Z,11.67
2018-05-16T22:16:28.680Z,10.87
2018-05-16T22:18:58.283Z,11.73
2018-05-16T22:21:28.100Z,11.30
2018-05-16T22:23:57.823Z,10.03
2018-05-16T22:26:27.534Z,9.67
2018-05-16T22:28:57.237Z,8.13
2018-05-16T22:31:26.938Z,7.50
2018-05-16T22:33:56.647Z,6.57
2018-05-16T22:36:26.350Z,6.53
2018-05-16T22:38:55.988Z,5.47
2018-05-16T22:41:25.684Z,6.20
2018-05-16T22:43:55.378Z,5.57
2018-05-16T22:46:25.211Z,5.03
2018-05-16T22:48:54.795Z,6.23
2018-05-16T22:51:24.206Z,5.97
2018-05-16T22:53:53.914Z,7.03
2018-05-16T22:56:23.413Z,6.13
2018-05-16T22:58:53.122Z,6.07
2018-05-16T23:01:22.629Z,7.17
2018-05-16T23:03:52.230Z,6.20
2018-05-16T23:06:21.854Z,5.13
2018-05-16T23:08:51.475Z,5.80
2018-05-16T23:11:20.949Z,6.40
2018-05-16T23:13:50.354Z,6.23
2018-05-16T23:16:20.074Z,5.80
2018-05-16T23:18:49.670Z,6.27
2018-05-16T23:21:19.078Z,5.20
2018-05-16T23:23:48.786Z,5.90
2018-05-16T23:26:18.386Z,5.63
2018-05-16T23:28:47.998Z,4.87
2018-05-16T23:31:17.607Z,5.53
2018-05-16T23:33:47.308Z,5.60
2018-05-16T23:36:16.819Z,5.30
2018-05-16T23:38:46.420Z,5.33
2018-05-16T23:41:16.152Z,7.07
2018-05-16T23:43:45.641Z,7.30
2018-05-16T23:46:15.362Z,6.00
2018-05-16T23:48:44.747Z,5.40
2018-05-16T23:51:14.464Z,6.73
2018-05-16T23:53:43.958Z,7.30
2018-05-16T23:56:13.468Z,7.83
2018-05-16T23:58:43.094Z,6.90
